sensor_id;sensor_type;location;lat;lon;timestamp;P1;durP1;ratioP1;P2;durP2;ratioP2
5585;SDS011;2815;54.094;12.112;2022-12-07T00:01:04;5.90;;;2.30;;
5585;SDS011;2815;54.094;12.112;2022-12-07T00:03:33;3.15;;;2.28;;
5585;SDS011;2815;54.094;12.112;2022-12-07T00:06:01;6.93;;;3.80;;
5585;SDS011;2815;54.094;12.112;2022-12-07T00:08:30;7.00;;;4.20;;
5585;SDS011;2815;54.094;12.112;2022-12-07T00:11:02;6.07;;;3.83;;
5585;SDS011;2815;54.094;12.112;2022-12-07T00:13:30;9.13;;;4.30;;
5585;SDS011;2815;54.094;12.112;2022-12-07T00:15:59;6.28;;;3.65;;
5585;SDS011;2815;54.094;12.112;2022-12-07T00:18:28;4.97;;;3.60;;
5585;SDS011;2815;54.094;12.112;2022-12-07T00:20:59;9.25;;;4.13;;
5585;SDS011;2815;54.094;12.112;2022-12-07T00:23:27;8.38;;;4.40;;
5585;SDS011;2815;54.094;12.112;2022-12-07T00:25:55;9.15;;;4.07;;
5585;SDS011;2815;54.094;12.112;2022-12-07T00:28:24;9.32;;;4.60;;
5585;SDS011;2815;54.094;12.112;2022-12-07T00:30:52;7.47;;;3.85;;
5585;SDS011;2815;54.094;12.112;2022-12-07T00:33:27;8.88;;;5.30;;
5585;SDS011;2815;54.094;12.112;2022-12-07T00:35:55;7.93;;;4.82;;
5585;SDS011;2815;54.094;12.112;2022-12-07T00:38:24;11.30;;;5.78;;
5585;SDS011;2815;54.094;12.112;2022-12-07T00:40:55;9.88;;;5.38;;
5585;SDS011;2815;54.094;12.112;2022-12-07T00:43:25;8.30;;;5.23;;
5585;SDS011;2815;54.094;12.112;2022-12-07T00:45:54;9.63;;;5.35;;
5585;SDS011;2815;54.094;12.112;2022-12-07T00:48:22;8.13;;;4.90;;
5585;SDS011;2815;54.094;12.112;2022-12-07T00:50:50;8.40;;;4.75;;
5585;SDS011;2815;54.094;12.112;2022-12-07T00:53:18;10.90;;;5.13;;
5585;SDS011;2815;54.094;12.112;2022-12-07T00:55:46;9.85;;;5.25;;
5585;SDS011;2815;54.094;12.112;2022-12-07T00:58:14;8.18;;;4.95;;
5585;SDS011;2815;54.094;12.112;2022-12-07T01:00:44;10.55;;;5.38;;
5585;SDS011;2815;54.094;12.112;2022-12-07T01:03:12;8.32;;;4.40;;
5585;SDS011;2815;54.094;12.112;2022-12-07T01:05:48;8.82;;;4.60;;
5585;SDS011;2815;54.094;12.112;2022-12-07T01:08:17;10.13;;;5.68;;
5585;SDS011;2815;54.094;12.112;2022-12-07T01:10:45;7.97;;;4.30;;
5585;SDS011;2815;54.094;12.112;2022-12-07T01:13:13;8.15;;;4.43;;
5585;SDS011;2815;54.094;12.112;2022-12-07T01:15:41;8.00;;;5.00;;
5585;SDS011;2815;54.094;12.112;2022-12-07T01:18:10;9.95;;;5.30;;
5585;SDS011;2815;54.094;12.112;2022-12-07T01:20:38;7.65;;;4.30;;
5585;SDS011;2815;54.094;12.112;2022-12-07T01:23:06;8.40;;;4.57;;
5585;SDS011;2815;54.094;12.112;2022-12-07T01:25:35;8.80;;;4.90;;
5585;SDS011;2815;54.094;12.112;2022-12-07T01:28:03;9.43;;;5.13;;
5585;SDS011;2815;54.094;12.112;2022-12-07T01:30:31;8.45;;;4.65;;
5585;SDS011;2815;54.094;12.112;2022-12-07T01:32:59;7.93;;;4.75;;
5585;SDS011;2815;54.094;12.112;2022-12-07T01:35:28;9.90;;;5.13;;
5585;SDS011;2815;54.094;12.112;2022-12-07T01:37:56;10.30;;;5.00;;
5585;SDS011;2815;54.094;12.112;2022-12-07T01:40:24;9.48;;;5.03;;
5585;SDS011;2815;54.094;12.112;2022-12-07T01:42:52;7.28;;;4.47;;
5585;SDS011;2815;54.094;12.112;2022-12-07T01:48:13;10.70;;;4.97;;
5585;SDS011;2815;54.094;12.112;2022-12-07T01:50:44;8.82;;;4.80;;
5585;SDS011;2815;54.094;12.112;2022-12-07T01:53:13;7.25;;;4.55;;
5585;SDS011;2815;54.094;12.112;2022-12-07T01:55:42;7.35;;;4.25;;
5585;SDS011;2815;54.094;12.112;2022-12-07T01:58:12;7.80;;;4.50;;
5585;SDS011;2815;54.094;12.112;2022-12-07T02:00:40;9.23;;;5.20;;
5585;SDS011;2815;54.094;12.112;2022-12-07T02:03:09;11.75;;;5.63;;
5585;SDS011;2815;54.094;12.112;2022-12-07T02:05:40;9.05;;;4.90;;
5585;SDS011;2815;54.094;12.112;2022-12-07T02:08:09;9.05;;;4.78;;
5585;SDS011;2815;54.094;12.112;2022-12-07T02:10:38;10.35;;;5.22;;
5585;SDS011;2815;54.094;12.112;2022-12-07T02:13:08;9.27;;;4.50;;
5585;SDS011;2815;54.094;12.112;2022-12-07T02:15:42;7.95;;;4.55;;
5585;SDS011;2815;54.094;12.112;2022-12-07T02:18:16;10.02;;;4.97;;
5585;SDS011;2815;54.094;12.112;2022-12-07T02:20:47;10.40;;;4.78;;
5585;SDS011;2815;54.094;12.112;2022-12-07T02:23:42;10.82;;;5.60;;
5585;SDS011;2815;54.094;12.112;2022-12-07T02:29:26;9.85;;;4.50;;
5585;SDS011;2815;54.094;12.112;2022-12-07T02:31:56;9.70;;;5.03;;
5585;SDS011;2815;54.094;12.112;2022-12-07T02:34:33;7.53;;;4.45;;
5585;SDS011;2815;54.094;12.112;2022-12-07T02:37:07;9.00;;;5.07;;
5585;SDS011;2815;54.094;12.112;2022-12-07T02:39:40;10.30;;;5.38;;
5585;SDS011;2815;54.094;12.112;2022-12-07T02:42:10;8.60;;;4.63;;
5585;SDS011;2815;54.094;12.112;2022-12-07T02:44:42;9.18;;;4.80;;
5585;SDS011;2815;54.094;12.112;2022-12-07T02:47:12;9.15;;;4.40;;
5585;SDS011;2815;54.094;12.112;2022-12-07T02:49:42;10.10;;;5.05;;
5585;SDS011;2815;54.094;12.112;2022-12-07T02:52:10;10.23;;;5.32;;
5585;SDS011;2815;54.094;12.112;2022-12-07T02:54:38;10.00;;;5.00;;
5585;SDS011;2815;54.094;12.112;2022-12-07T02:57:10;14.35;;;5.82;;
5585;SDS011;2815;54.094;12.112;2022-12-07T02:59:48;14.50;;;5.80;;
5585;SDS011;2815;54.094;12.112;2022-12-07T03:02:24;11.93;;;4.90;;
5585;SDS011;2815;54.094;12.112;2022-12-07T03:04:56;13.93;;;5.15;;
5585;SDS011;2815;54.094;12.112;2022-12-07T03:07:32;13.73;;;5.35;;
5585;SDS011;2815;54.094;12.112;2022-12-07T03:10:03;16.07;;;6.57;;
5585;SDS011;2815;54.094;12.112;2022-12-07T03:12:35;13.75;;;5.68;;
5585;SDS011;2815;54.094;12.112;2022-12-07T03:15:11;13.48;;;6.40;;
5585;SDS011;2815;54.094;12.112;2022-12-07T03:17:42;13.40;;;5.47;;
5585;SDS011;2815;54.094;12.112;2022-12-07T03:20:12;15.52;;;6.53;;
5585;SDS011;2815;54.094;12.112;2022-12-07T03:22:41;17.95;;;7.05;;
5585;SDS011;2815;54.094;12.112;2022-12-07T03:25:10;12.50;;;5.85;;
5585;SDS011;2815;54.094;12.112;2022-12-07T03:27:41;15.13;;;6.18;;
5585;SDS011;2815;54.094;12.112;2022-12-07T03:30:15;16.23;;;6.70;;
5585;SDS011;2815;54.094;12.112;2022-12-07T03:35:15;15.48;;;6.20;;
5585;SDS011;2815;54.094;12.112;2022-12-07T03:37:46;14.18;;;6.75;;
5585;SDS011;2815;54.094;12.112;2022-12-07T03:40:18;18.00;;;7.03;;
5585;SDS011;2815;54.094;12.112;2022-12-07T03:42:50;16.35;;;6.40;;
5585;SDS011;2815;54.094;12.112;2022-12-07T03:45:20;16.33;;;7.00;;
5585;SDS011;2815;54.094;12.112;2022-12-07T03:50:21;15.73;;;6.25;;
5585;SDS011;2815;54.094;12.112;2022-12-07T03:52:55;18.13;;;6.82;;
5585;SDS011;2815;54.094;12.112;2022-12-07T03:55:27;18.25;;;6.82;;
5585;SDS011;2815;54.094;12.112;2022-12-07T03:57:57;15.80;;;5.70;;
5585;SDS011;2815;54.094;12.112;2022-12-07T04:00:29;21.50;;;7.57;;
5585;SDS011;2815;54.094;12.112;2022-12-07T04:02:57;23.75;;;7.47;;
5585;SDS011;2815;54.094;12.112;2022-12-07T04:05:25;27.10;;;8.38;;
5585;SDS011;2815;54.094;12.112;2022-12-07T04:07:53;25.38;;;7.95;;
5585;SDS011;2815;54.094;12.112;2022-12-07T04:10:21;22.17;;;8.25;;
5585;SDS011;2815;54.094;12.112;2022-12-07T04:12:49;23.67;;;8.32;;
5585;SDS011;2815;54.094;12.112;2022-12-07T04:15:17;21.65;;;7.68;;
5585;SDS011;2815;54.094;12.112;2022-12-07T04:17:46;26.17;;;9.35;;
5585;SDS011;2815;54.094;12.112;2022-12-07T04:20:14;25.42;;;8.38;;
5585;SDS011;2815;54.094;12.112;2022-12-07T04:22:43;23.73;;;8.85;;
5585;SDS011;2815;54.094;12.112;2022-12-07T04:25:11;22.00;;;7.78;;
5585;SDS011;2815;54.094;12.112;2022-12-07T04:27:38;23.45;;;8.20;;
5585;SDS011;2815;54.094;12.112;2022-12-07T04:30:07;28.02;;;8.80;;
5585;SDS011;2815;54.094;12.112;2022-12-07T04:32:35;23.25;;;8.43;;
5585;SDS011;2815;54.094;12.112;2022-12-07T04:35:05;25.13;;;8.35;;
5585;SDS011;2815;54.094;12.112;2022-12-07T04:37:33;21.95;;;8.15;;
5585;SDS011;2815;54.094;12.112;2022-12-07T04:40:01;25.20;;;8.68;;
5585;SDS011;2815;54.094;12.112;2022-12-07T04:42:30;24.52;;;9.25;;
5585;SDS011;2815;54.094;12.112;2022-12-07T04:45:16;23.90;;;9.02;;
5585;SDS011;2815;54.094;12.112;2022-12-07T04:47:44;28.48;;;9.10;;
5585;SDS011;2815;54.094;12.112;2022-12-07T04:50:11;26.60;;;9.27;;
5585;SDS011;2815;54.094;12.112;2022-12-07T04:52:39;19.33;;;8.73;;
5585;SDS011;2815;54.094;12.112;2022-12-07T04:55:07;23.75;;;9.13;;
5585;SDS011;2815;54.094;12.112;2022-12-07T04:57:35;24.25;;;9.57;;
5585;SDS011;2815;54.094;12.112;2022-12-07T05:00:04;31.35;;;9.40;;
5585;SDS011;2815;54.094;12.112;2022-12-07T05:02:34;22.88;;;9.07;;
5585;SDS011;2815;54.094;12.112;2022-12-07T05:05:02;26.73;;;9.23;;
5585;SDS011;2815;54.094;12.112;2022-12-07T05:07:30;25.02;;;8.98;;
5585;SDS011;2815;54.094;12.112;2022-12-07T05:09:58;27.90;;;9.15;;
5585;SDS011;2815;54.094;12.112;2022-12-07T05:12:26;24.70;;;8.93;;
5585;SDS011;2815;54.094;12.112;2022-12-07T05:14:54;30.98;;;9.05;;
5585;SDS011;2815;54.094;12.112;2022-12-07T05:17:22;28.40;;;9.30;;
5585;SDS011;2815;54.094;12.112;2022-12-07T05:19:52;29.20;;;9.02;;
5585;SDS011;2815;54.094;12.112;2022-12-07T05:22:20;26.63;;;9.43;;
5585;SDS011;2815;54.094;12.112;2022-12-07T05:24:47;25.60;;;9.95;;
5585;SDS011;2815;54.094;12.112;2022-12-07T05:27:15;20.13;;;8.50;;
5585;SDS011;2815;54.094;12.112;2022-12-07T05:29:43;26.55;;;8.75;;
5585;SDS011;2815;54.094;12.112;2022-12-07T05:32:11;26.98;;;9.80;;
5585;SDS011;2815;54.094;12.112;2022-12-07T05:34:39;29.67;;;10.00;;
5585;SDS011;2815;54.094;12.112;2022-12-07T05:37:08;31.52;;;9.45;;
5585;SDS011;2815;54.094;12.112;2022-12-07T05:39:36;30.75;;;10.10;;
5585;SDS011;2815;54.094;12.112;2022-12-07T05:42:07;25.58;;;8.80;;
5585;SDS011;2815;54.094;12.112;2022-12-07T05:44:43;28.25;;;9.68;;
5585;SDS011;2815;54.094;12.112;2022-12-07T05:47:12;31.42;;;10.05;;
5585;SDS011;2815;54.094;12.112;2022-12-07T05:49:41;31.83;;;12.13;;
5585;SDS011;2815;54.094;12.112;2022-12-07T05:52:10;25.35;;;9.77;;
5585;SDS011;2815;54.094;12.112;2022-12-07T05:54:38;27.42;;;9.75;;
5585;SDS011;2815;54.094;12.112;2022-12-07T05:57:06;34.60;;;11.45;;
5585;SDS011;2815;54.094;12.112;2022-12-07T05:59:34;34.00;;;11.90;;
5585;SDS011;2815;54.094;12.112;2022-12-07T06:02:01;33.78;;;11.25;;
5585;SDS011;2815;54.094;12.112;2022-12-07T06:04:32;41.58;;;10.95;;
5585;SDS011;2815;54.094;12.112;2022-12-07T06:07:02;30.48;;;11.05;;
5585;SDS011;2815;54.094;12.112;2022-12-07T06:09:32;31.52;;;10.68;;
5585;SDS011;2815;54.094;12.112;2022-12-07T06:12:00;25.60;;;10.10;;
5585;SDS011;2815;54.094;12.112;2022-12-07T06:14:46;30.48;;;10.23;;
5585;SDS011;2815;54.094;12.112;2022-12-07T06:17:14;31.83;;;10.27;;
5585;SDS011;2815;54.094;12.112;2022-12-07T06:19:42;24.13;;;9.48;;
5585;SDS011;2815;54.094;12.112;2022-12-07T06:22:11;26.15;;;9.93;;
5585;SDS011;2815;54.094;12.112;2022-12-07T06:24:41;21.58;;;9.02;;
5585;SDS011;2815;54.094;12.112;2022-12-07T06:27:09;24.60;;;9.43;;
5585;SDS011;2815;54.094;12.112;2022-12-07T06:29:37;26.52;;;9.32;;
5585;SDS011;2815;54.094;12.112;2022-12-07T06:32:05;27.77;;;9.43;;
5585;SDS011;2815;54.094;12.112;2022-12-07T06:34:33;23.85;;;10.20;;
5585;SDS011;2815;54.094;12.112;2022-12-07T06:37:01;23.48;;;9.10;;
5585;SDS011;2815;54.094;12.112;2022-12-07T06:39:30;20.73;;;8.60;;
5585;SDS011;2815;54.094;12.112;2022-12-07T06:41:59;22.02;;;9.15;;
5585;SDS011;2815;54.094;12.112;2022-12-07T06:44:27;29.63;;;9.57;;
5585;SDS011;2815;54.094;12.112;2022-12-07T06:46:55;21.27;;;9.52;;
5585;SDS011;2815;54.094;12.112;2022-12-07T06:49:43;15.65;;;7.78;;
5585;SDS011;2815;54.094;12.112;2022-12-07T06:52:11;19.15;;;7.97;;
5585;SDS011;2815;54.094;12.112;2022-12-07T06:54:39;21.98;;;8.57;;
5585;SDS011;2815;54.094;12.112;2022-12-07T06:57:08;23.00;;;7.93;;
5585;SDS011;2815;54.094;12.112;2022-12-07T06:59:36;23.00;;;8.45;;
5585;SDS011;2815;54.094;12.112;2022-12-07T07:02:04;21.73;;;7.07;;
5585;SDS011;2815;54.094;12.112;2022-12-07T07:04:32;20.35;;;7.60;;
5585;SDS011;2815;54.094;12.112;2022-12-07T07:07:00;19.23;;;7.55;;
5585;SDS011;2815;54.094;12.112;2022-12-07T07:09:28;21.25;;;8.00;;
5585;SDS011;2815;54.094;12.112;2022-12-07T07:11:56;14.63;;;7.13;;
5585;SDS011;2815;54.094;12.112;2022-12-07T07:14:25;15.02;;;6.38;;
5585;SDS011;2815;54.094;12.112;2022-12-07T07:16:53;22.65;;;7.13;;
5585;SDS011;2815;54.094;12.112;2022-12-07T07:19:21;21.25;;;7.78;;
5585;SDS011;2815;54.094;12.112;2022-12-07T07:21:49;19.30;;;7.22;;
5585;SDS011;2815;54.094;12.112;2022-12-07T07:24:17;16.60;;;6.88;;
5585;SDS011;2815;54.094;12.112;2022-12-07T07:26:45;16.50;;;8.48;;
5585;SDS011;2815;54.094;12.112;2022-12-07T07:29:13;16.10;;;6.57;;
5585;SDS011;2815;54.094;12.112;2022-12-07T07:38:49;16.33;;;6.68;;
5585;SDS011;2815;54.094;12.112;2022-12-07T07:41:17;12.60;;;6.50;;
5585;SDS011;2815;54.094;12.112;2022-12-07T07:43:45;14.38;;;6.53;;
5585;SDS011;2815;54.094;12.112;2022-12-07T07:46:13;16.23;;;7.32;;
5585;SDS011;2815;54.094;12.112;2022-12-07T07:48:41;15.50;;;6.13;;
5585;SDS011;2815;54.094;12.112;2022-12-07T07:51:09;18.33;;;7.63;;
5585;SDS011;2815;54.094;12.112;2022-12-07T07:53:36;16.02;;;7.53;;
5585;SDS011;2815;54.094;12.112;2022-12-07T07:56:06;14.52;;;5.57;;
5585;SDS011;2815;54.094;12.112;2022-12-07T07:58:34;13.75;;;5.88;;
5585;SDS011;2815;54.094;12.112;2022-12-07T08:01:05;13.98;;;6.47;;
5585;SDS011;2815;54.094;12.112;2022-12-07T08:03:34;14.10;;;5.88;;
5585;SDS011;2815;54.094;12.112;2022-12-07T08:06:02;9.80;;;4.93;;
5585;SDS011;2815;54.094;12.112;2022-12-07T08:08:30;7.97;;;3.88;;
5585;SDS011;2815;54.094;12.112;2022-12-07T08:10:58;10.45;;;4.88;;
5585;SDS011;2815;54.094;12.112;2022-12-07T08:13:29;23.27;;;4.78;;
5585;SDS011;2815;54.094;12.112;2022-12-07T08:15:57;43.10;;;6.72;;
5585;SDS011;2815;54.094;12.112;2022-12-07T08:18:25;19.02;;;3.88;;
5585;SDS011;2815;54.094;12.112;2022-12-07T08:20:58;8.98;;;3.63;;
5585;SDS011;2815;54.094;12.112;2022-12-07T08:23:27;9.55;;;3.90;;
5585;SDS011;2815;54.094;12.112;2022-12-07T08:26:05;48.33;;;7.93;;
5585;SDS011;2815;54.094;12.112;2022-12-07T08:28:36;12.02;;;4.35;;
5585;SDS011;2815;54.094;12.112;2022-12-07T08:31:05;7.90;;;4.22;;
5585;SDS011;2815;54.094;12.112;2022-12-07T08:33:35;12.13;;;4.63;;
5585;SDS011;2815;54.094;12.112;2022-12-07T08:36:04;7.65;;;4.10;;
5585;SDS011;2815;54.094;12.112;2022-12-07T08:38:33;10.02;;;4.22;;
5585;SDS011;2815;54.094;12.112;2022-12-07T08:41:01;9.65;;;4.15;;
5585;SDS011;2815;54.094;12.112;2022-12-07T08:43:29;6.25;;;3.70;;
5585;SDS011;2815;54.094;12.112;2022-12-07T08:46:01;3.33;;;2.30;;
5585;SDS011;2815;54.094;12.112;2022-12-07T08:48:33;5.57;;;3.50;;
5585;SDS011;2815;54.094;12.112;2022-12-07T08:51:02;5.18;;;3.10;;
5585;SDS011;2815;54.094;12.112;2022-12-07T08:53:30;6.25;;;3.53;;
5585;SDS011;2815;54.094;12.112;2022-12-07T08:55:58;5.97;;;2.80;;
5585;SDS011;2815;54.094;12.112;2022-12-07T08:58:26;5.10;;;3.05;;
5585;SDS011;2815;54.094;12.112;2022-12-07T09:00:54;6.10;;;3.40;;
5585;SDS011;2815;54.094;12.112;2022-12-07T09:03:23;82.20;;;7.55;;
5585;SDS011;2815;54.094;12.112;2022-12-07T09:05:51;42.75;;;5.95;;
5585;SDS011;2815;54.094;12.112;2022-12-07T09:08:20;7.00;;;3.45;;
5585;SDS011;2815;54.094;12.112;2022-12-07T09:10:49;4.07;;;2.58;;
5585;SDS011;2815;54.094;12.112;2022-12-07T09:13:17;14.98;;;4.47;;
5585;SDS011;2815;54.094;12.112;2022-12-07T09:15:45;3.95;;;2.78;;
5585;SDS011;2815;54.094;12.112;2022-12-07T09:18:13;9.88;;;4.82;;
5585;SDS011;2815;54.094;12.112;2022-12-07T09:20:42;13.68;;;4.68;;
5585;SDS011;2815;54.094;12.112;2022-12-07T09:23:10;26.60;;;6.18;;
5585;SDS011;2815;54.094;12.112;2022-12-07T09:25:38;5.53;;;3.15;;
5585;SDS011;2815;54.094;12.112;2022-12-07T09:28:05;24.08;;;5.97;;
5585;SDS011;2815;54.094;12.112;2022-12-07T09:30:33;6.70;;;3.90;;
5585;SDS011;2815;54.094;12.112;2022-12-07T09:33:21;8.20;;;4.15;;
5585;SDS011;2815;54.094;12.112;2022-12-07T09:35:51;9.05;;;4.18;;
5585;SDS011;2815;54.094;12.112;2022-12-07T09:38:20;9.88;;;4.63;;
5585;SDS011;2815;54.094;12.112;2022-12-07T09:40:48;11.50;;;4.22;;
5585;SDS011;2815;54.094;12.112;2022-12-07T09:43:17;6.63;;;3.30;;
5585;SDS011;2815;54.094;12.112;2022-12-07T09:45:46;12.52;;;4.80;;
5585;SDS011;2815;54.094;12.112;2022-12-07T09:48:16;7.65;;;4.13;;
5585;SDS011;2815;54.094;12.112;2022-12-07T09:50:46;8.02;;;4.78;;
5585;SDS011;2815;54.094;12.112;2022-12-07T09:53:17;9.63;;;4.20;;
5585;SDS011;2815;54.094;12.112;2022-12-07T09:55:48;7.65;;;4.03;;
5585;SDS011;2815;54.094;12.112;2022-12-07T09:58:17;8.10;;;3.33;;
5585;SDS011;2815;54.094;12.112;2022-12-07T10:00:47;7.47;;;4.18;;
5585;SDS011;2815;54.094;12.112;2022-12-07T10:03:16;6.00;;;3.15;;
5585;SDS011;2815;54.094;12.112;2022-12-07T10:05:45;14.32;;;4.60;;
5585;SDS011;2815;54.094;12.112;2022-12-07T10:08:17;13.90;;;4.53;;
5585;SDS011;2815;54.094;12.112;2022-12-07T10:10:46;6.63;;;4.03;;
5585;SDS011;2815;54.094;12.112;2022-12-07T10:15:48;3.60;;;2.17;;
5585;SDS011;2815;54.094;12.112;2022-12-07T10:18:20;9.45;;;3.53;;
5585;SDS011;2815;54.094;12.112;2022-12-07T10:21:00;10.50;;;3.30;;
5585;SDS011;2815;54.094;12.112;2022-12-07T10:23:32;6.65;;;2.92;;
5585;SDS011;2815;54.094;12.112;2022-12-07T10:26:01;6.70;;;1.85;;
5585;SDS011;2815;54.094;12.112;2022-12-07T10:28:47;2.85;;;2.00;;
5585;SDS011;2815;54.094;12.112;2022-12-07T10:31:16;5.10;;;1.50;;
5585;SDS011;2815;54.094;12.112;2022-12-07T10:33:50;9.32;;;2.15;;
5585;SDS011;2815;54.094;12.112;2022-12-07T10:36:20;5.90;;;2.25;;
5585;SDS011;2815;54.094;12.112;2022-12-07T10:38:52;5.47;;;1.50;;
5585;SDS011;2815;54.094;12.112;2022-12-07T10:41:21;5.57;;;1.60;;
5585;SDS011;2815;54.094;12.112;2022-12-07T10:43:50;6.68;;;1.40;;
5585;SDS011;2815;54.094;12.112;2022-12-07T10:49:27;3.75;;;1.55;;
5585;SDS011;2815;54.094;12.112;2022-12-07T10:52:25;3.17;;;1.20;;
5585;SDS011;2815;54.094;12.112;2022-12-07T10:55:03;5.15;;;1.10;;
5585;SDS011;2815;54.094;12.112;2022-12-07T10:57:39;0.73;;;0.73;;
5585;SDS011;2815;54.094;12.112;2022-12-07T11:00:16;8.23;;;1.33;;
5585;SDS011;2815;54.094;12.112;2022-12-07T11:02:52;1.17;;;0.68;;
5585;SDS011;2815;54.094;12.112;2022-12-07T11:05:27;0.80;;;0.43;;
5585;SDS011;2815;54.094;12.112;2022-12-07T11:08:00;3.35;;;1.40;;
5585;SDS011;2815;54.094;12.112;2022-12-07T11:10:34;0.82;;;0.55;;
5585;SDS011;2815;54.094;12.112;2022-12-07T11:13:13;3.88;;;0.88;;
5585;SDS011;2815;54.094;12.112;2022-12-07T11:16:01;2.78;;;0.63;;
5585;SDS011;2815;54.094;12.112;2022-12-07T11:18:33;1.70;;;0.93;;
5585;SDS011;2815;54.094;12.112;2022-12-07T11:21:07;2.05;;;0.70;;
5585;SDS011;2815;54.094;12.112;2022-12-07T11:23:40;0.68;;;0.60;;
5585;SDS011;2815;54.094;12.112;2022-12-07T11:26:17;1.55;;;0.63;;
5585;SDS011;2815;54.094;12.112;2022-12-07T11:29:02;1.02;;;0.40;;
5585;SDS011;2815;54.094;12.112;2022-12-07T11:31:38;3.92;;;0.50;;
5585;SDS011;2815;54.094;12.112;2022-12-07T11:34:18;2.53;;;0.93;;
5585;SDS011;2815;54.094;12.112;2022-12-07T11:36:51;1.27;;;0.70;;
5585;SDS011;2815;54.094;12.112;2022-12-07T11:39:23;3.70;;;0.60;;
5585;SDS011;2815;54.094;12.112;2022-12-07T11:41:56;2.53;;;0.75;;
5585;SDS011;2815;54.094;12.112;2022-12-07T11:44:30;1.83;;;0.70;;
5585;SDS011;2815;54.094;12.112;2022-12-07T11:47:04;3.05;;;0.70;;
5585;SDS011;2815;54.094;12.112;2022-12-07T11:49:38;0.38;;;0.35;;
5585;SDS011;2815;54.094;12.112;2022-12-07T11:52:11;1.83;;;0.60;;
5585;SDS011;2815;54.094;12.112;2022-12-07T11:54:45;1.98;;;0.77;;
5585;SDS011;2815;54.094;12.112;2022-12-07T11:57:18;0.73;;;0.60;;
5585;SDS011;2815;54.094;12.112;2022-12-07T11:59:50;1.42;;;0.68;;
5585;SDS011;2815;54.094;12.112;2022-12-07T12:02:21;0.60;;;0.40;;
5585;SDS011;2815;54.094;12.112;2022-12-07T12:04:54;3.60;;;0.43;;
5585;SDS011;2815;54.094;12.112;2022-12-07T12:07:24;11.02;;;1.42;;
5585;SDS011;2815;54.094;12.112;2022-12-07T12:10:15;3.00;;;0.68;;
5585;SDS011;2815;54.094;12.112;2022-12-07T12:16:15;3.10;;;0.77;;
5585;SDS011;2815;54.094;12.112;2022-12-07T12:19:05;1.27;;;0.70;;
5585;SDS011;2815;54.094;12.112;2022-12-07T12:21:39;1.45;;;0.70;;
5585;SDS011;2815;54.094;12.112;2022-12-07T12:24:09;0.60;;;0.60;;
5585;SDS011;2815;54.094;12.112;2022-12-07T12:26:41;4.40;;;0.88;;
5585;SDS011;2815;54.094;12.112;2022-12-07T12:29:21;3.05;;;0.73;;
5585;SDS011;2815;54.094;12.112;2022-12-07T12:32:10;2.83;;;0.77;;
5585;SDS011;2815;54.094;12.112;2022-12-07T12:34:42;10.93;;;1.05;;
5585;SDS011;2815;54.094;12.112;2022-12-07T12:37:39;1.42;;;0.95;;
5585;SDS011;2815;54.094;12.112;2022-12-07T12:51:44;1.70;;;0.73;;
5585;SDS011;2815;54.094;12.112;2022-12-07T12:54:14;4.32;;;0.75;;
5585;SDS011;2815;54.094;12.112;2022-12-07T12:56:43;5.05;;;1.02;;
5585;SDS011;2815;54.094;12.112;2022-12-07T12:59:22;2.67;;;0.77;;
5585;SDS011;2815;54.094;12.112;2022-12-07T13:01:55;11.52;;;0.75;;
5585;SDS011;2815;54.094;12.112;2022-12-07T13:13:29;3.50;;;1.00;;
5585;SDS011;2815;54.094;12.112;2022-12-07T13:22:37;3.45;;;0.75;;
5585;SDS011;2815;54.094;12.112;2022-12-07T13:25:09;2.55;;;1.20;;
5585;SDS011;2815;54.094;12.112;2022-12-07T13:27:39;3.70;;;0.80;;
5585;SDS011;2815;54.094;12.112;2022-12-07T13:30:12;1.65;;;0.75;;
5585;SDS011;2815;54.094;12.112;2022-12-07T13:32:41;2.35;;;0.63;;
5585;SDS011;2815;54.094;12.112;2022-12-07T13:35:29;0.40;;;0.40;;
5585;SDS011;2815;54.094;12.112;2022-12-07T13:37:59;2.83;;;0.77;;
5585;SDS011;2815;54.094;12.112;2022-12-07T13:40:29;2.45;;;0.70;;
5585;SDS011;2815;54.094;12.112;2022-12-07T13:42:57;1.90;;;0.52;;
5585;SDS011;2815;54.094;12.112;2022-12-07T13:45:26;0.68;;;0.38;;
5585;SDS011;2815;54.094;12.112;2022-12-07T13:48:10;2.28;;;0.70;;
5585;SDS011;2815;54.094;12.112;2022-12-07T13:50:42;3.72;;;0.75;;
5585;SDS011;2815;54.094;12.112;2022-12-07T13:53:12;1.75;;;0.75;;
5585;SDS011;2815;54.094;12.112;2022-12-07T13:55:45;0.73;;;0.73;;
5585;SDS011;2815;54.094;12.112;2022-12-07T13:58:19;1.27;;;0.30;;
5585;SDS011;2815;54.094;12.112;2022-12-07T14:00:47;2.50;;;1.17;;
5585;SDS011;2815;54.094;12.112;2022-12-07T14:03:23;2.15;;;0.50;;
5585;SDS011;2815;54.094;12.112;2022-12-07T14:06:13;2.33;;;0.50;;
5585;SDS011;2815;54.094;12.112;2022-12-07T14:08:45;0.75;;;0.50;;
5585;SDS011;2815;54.094;12.112;2022-12-07T14:11:14;0.63;;;0.40;;
5585;SDS011;2815;54.094;12.112;2022-12-07T14:13:49;3.33;;;0.73;;
5585;SDS011;2815;54.094;12.112;2022-12-07T14:16:22;0.52;;;0.52;;
5585;SDS011;2815;54.094;12.112;2022-12-07T14:18:52;0.40;;;0.40;;
5585;SDS011;2815;54.094;12.112;2022-12-07T14:21:21;0.30;;;0.30;;
5585;SDS011;2815;54.094;12.112;2022-12-07T14:24:11;1.40;;;0.70;;
5585;SDS011;2815;54.094;12.112;2022-12-07T14:26:44;1.58;;;0.68;;
5585;SDS011;2815;54.094;12.112;2022-12-07T14:29:19;3.65;;;0.65;;
5585;SDS011;2815;54.094;12.112;2022-12-07T14:31:48;1.17;;;0.50;;
5585;SDS011;2815;54.094;12.112;2022-12-07T14:34:16;0.57;;;0.50;;
5585;SDS011;2815;54.094;12.112;2022-12-07T14:36:44;0.93;;;0.70;;
5585;SDS011;2815;54.094;12.112;2022-12-07T14:39:13;0.32;;;0.32;;
5585;SDS011;2815;54.094;12.112;2022-12-07T14:41:41;1.52;;;0.70;;
5585;SDS011;2815;54.094;12.112;2022-12-07T14:44:19;1.65;;;0.80;;
5585;SDS011;2815;54.094;12.112;2022-12-07T14:46:52;0.60;;;0.60;;
5585;SDS011;2815;54.094;12.112;2022-12-07T14:49:40;0.52;;;0.52;;
5585;SDS011;2815;54.094;12.112;2022-12-07T14:52:10;0.55;;;0.52;;
5585;SDS011;2815;54.094;12.112;2022-12-07T14:55:02;3.15;;;0.80;;
5585;SDS011;2815;54.094;12.112;2022-12-07T14:57:31;1.35;;;0.65;;
5585;SDS011;2815;54.094;12.112;2022-12-07T14:59:59;0.50;;;0.50;;
5585;SDS011;2815;54.094;12.112;2022-12-07T15:02:27;3.72;;;0.75;;
5585;SDS011;2815;54.094;12.112;2022-12-07T15:04:55;0.88;;;0.68;;
5585;SDS011;2815;54.094;12.112;2022-12-07T15:07:23;1.98;;;0.63;;
5585;SDS011;2815;54.094;12.112;2022-12-07T15:09:52;3.15;;;0.85;;
5585;SDS011;2815;54.094;12.112;2022-12-07T15:12:22;0.30;;;0.30;;
5585;SDS011;2815;54.094;12.112;2022-12-07T15:14:51;0.50;;;0.40;;
5585;SDS011;2815;54.094;12.112;2022-12-07T15:17:19;1.63;;;0.70;;
5585;SDS011;2815;54.094;12.112;2022-12-07T15:19:57;0.88;;;0.47;;
5585;SDS011;2815;54.094;12.112;2022-12-07T15:22:25;3.53;;;1.27;;
5585;SDS011;2815;54.094;12.112;2022-12-07T15:24:53;2.08;;;0.63;;
5585;SDS011;2815;54.094;12.112;2022-12-07T15:27:22;0.55;;;0.55;;
5585;SDS011;2815;54.094;12.112;2022-12-07T15:29:50;2.08;;;0.60;;
5585;SDS011;2815;54.094;12.112;2022-12-07T15:32:20;1.30;;;0.63;;
5585;SDS011;2815;54.094;12.112;2022-12-07T15:34:49;0.52;;;0.50;;
5585;SDS011;2815;54.094;12.112;2022-12-07T15:37:17;0.43;;;0.32;;
5585;SDS011;2815;54.094;12.112;2022-12-07T15:39:45;1.10;;;0.50;;
5585;SDS011;2815;54.094;12.112;2022-12-07T15:42:13;1.08;;;0.70;;
5585;SDS011;2815;54.094;12.112;2022-12-07T15:44:42;0.60;;;0.50;;
5585;SDS011;2815;54.094;12.112;2022-12-07T15:47:28;5.03;;;0.60;;
5585;SDS011;2815;54.094;12.112;2022-12-07T15:49:56;3.13;;;0.82;;
5585;SDS011;2815;54.094;12.112;2022-12-07T15:52:24;4.05;;;1.15;;
5585;SDS011;2815;54.094;12.112;2022-12-07T15:54:52;0.43;;;0.35;;
5585;SDS011;2815;54.094;12.112;2022-12-07T15:57:20;0.80;;;0.40;;
5585;SDS011;2815;54.094;12.112;2022-12-07T15:59:52;3.97;;;0.80;;
5585;SDS011;2815;54.094;12.112;2022-12-07T16:02:20;0.50;;;0.40;;
5585;SDS011;2815;54.094;12.112;2022-12-07T16:04:49;0.40;;;0.40;;
5585;SDS011;2815;54.094;12.112;2022-12-07T16:07:17;0.52;;;0.50;;
5585;SDS011;2815;54.094;12.112;2022-12-07T16:09:45;4.43;;;0.70;;
5585;SDS011;2815;54.094;12.112;2022-12-07T16:12:13;0.90;;;0.40;;